sensor_id;sensor_type;location;lat;lon;timestamp;temperature;humidity
418;DHT22;49;48.530;9.200;2024-03-08T00:00:50;9.20;29.10
418;DHT22;49;48.530;9.200;2024-03-08T00:03:25;9.50;19.10
418;DHT22;49;48.530;9.200;2024-03-08T00:05:58;9.40;22.90
418;DHT22;49;48.530;9.200;2024-03-08T00:08:35;9.40;23.30
418;DHT22;49;48.530;9.200;2024-03-08T00:16:32;9.00;43.60
418;DHT22;49;48.530;9.200;2024-03-08T00:19:02;9.20;23.10
418;DHT22;49;48.530;9.200;2024-03-08T00:21:29;9.60;28.90
418;DHT22;49;48.530;9.200;2024-03-08T00:23:57;9.20;18.80
418;DHT22;49;48.530;9.200;2024-03-08T00:26:25;9.20;21.20
418;DHT22;49;48.530;9.200;2024-03-08T00:29:12;9.40;30.00
418;DHT22;49;48.530;9.200;2024-03-08T00:32:00;9.90;22.50
418;DHT22;49;48.530;9.200;2024-03-08T00:34:50;9.50;16.40
418;DHT22;49;48.530;9.200;2024-03-08T00:37:41;8.60;19.70
418;DHT22;49;48.530;9.200;2024-03-08T00:40:13;8.50;23.10
418;DHT22;49;48.530;9.200;2024-03-08T00:42:43;8.80;22.40
418;DHT22;49;48.530;9.200;2024-03-08T00:45:16;8.20;20.60
418;DHT22;49;48.530;9.200;2024-03-08T00:48:26;8.50;32.90
418;DHT22;49;48.530;9.200;2024-03-08T00:51:00;8.60;19.60
418;DHT22;49;48.530;9.200;2024-03-08T00:53:27;9.10;21.30
418;DHT22;49;48.530;9.200;2024-03-08T00:55:55;9.10;17.30
418;DHT22;49;48.530;9.200;2024-03-08T00:58:22;8.00;19.00
418;DHT22;49;48.530;9.200;2024-03-08T01:00:50;7.30;22.10
418;DHT22;49;48.530;9.200;2024-03-08T01:03:18;7.00;24.20
418;DHT22;49;48.530;9.200;2024-03-08T01:05:46;6.70;25.80
418;DHT22;49;48.530;9.200;2024-03-08T01:08:13;6.90;27.80
418;DHT22;49;48.530;9.200;2024-03-08T01:10:40;7.30;27.20
418;DHT22;49;48.530;9.200;2024-03-08T01:13:07;7.80;36.30
418;DHT22;49;48.530;9.200;2024-03-08T01:15:35;8.60;26.20
418;DHT22;49;48.530;9.200;2024-03-08T01:18:02;7.90;22.20
418;DHT22;49;48.530;9.200;2024-03-08T01:20:32;7.10;24.80
418;DHT22;49;48.530;9.200;2024-03-08T01:22:59;7.00;29.80
418;DHT22;49;48.530;9.200;2024-03-08T01:25:26;7.10;34.00
418;DHT22;49;48.530;9.200;2024-03-08T01:27:53;7.90;29.70
418;DHT22;49;48.530;9.200;2024-03-08T01:30:20;8.90;30.30
418;DHT22;49;48.530;9.200;2024-03-08T01:32:47;9.40;22.20
418;DHT22;49;48.530;9.200;2024-03-08T01:35:14;9.60;20.10
418;DHT22;49;48.530;9.200;2024-03-08T01:37:43;9.20;17.30
418;DHT22;49;48.530;9.200;2024-03-08T01:40:11;8.00;18.20
418;DHT22;49;48.530;9.200;2024-03-08T01:42:39;7.40;22.70
418;DHT22;49;48.530;9.200;2024-03-08T01:45:07;7.80;27.50
418;DHT22;49;48.530;9.200;2024-03-08T01:47:34;8.40;22.70
418;DHT22;49;48.530;9.200;2024-03-08T01:50:02;8.50;22.20
418;DHT22;49;48.530;9.200;2024-03-08T01:52:30;8.70;20.70
418;DHT22;49;48.530;9.200;2024-03-08T01:55:02;9.10;23.90
418;DHT22;49;48.530;9.200;2024-03-08T01:57:31;9.00;16.20
418;DHT22;49;48.530;9.200;2024-03-08T01:59:59;9.00;18.10
418;DHT22;49;48.530;9.200;2024-03-08T02:02:32;9.10;20.80
418;DHT22;49;48.530;9.200;2024-03-08T02:05:00;9.50;28.10
418;DHT22;49;48.530;9.200;2024-03-08T02:07:28;9.70;26.20
418;DHT22;49;48.530;9.200;2024-03-08T02:09:55;9.90;23.60
418;DHT22;49;48.530;9.200;2024-03-08T02:12:24;10.40;25.30
418;DHT22;49;48.530;9.200;2024-03-08T02:14:51;10.20;19.70
418;DHT22;49;48.530;9.200;2024-03-08T02:17:19;10.10;13.50
418;DHT22;49;48.530;9.200;2024-03-08T02:19:46;9.90;17.60
418;DHT22;49;48.530;9.200;2024-03-08T02:22:14;9.60;17.10
418;DHT22;49;48.530;9.200;2024-03-08T02:24:42;9.10;19.30
418;DHT22;49;48.530;9.200;2024-03-08T02:27:09;8.40;17.50
418;DHT22;49;48.530;9.200;2024-03-08T02:29:55;8.90;29.20
418;DHT22;49;48.530;9.200;2024-03-08T02:32:23;10.00;32.50
418;DHT22;49;48.530;9.200;2024-03-08T02:34:50;10.40;26.90
418;DHT22;49;48.530;9.200;2024-03-08T02:37:18;10.50;18.10
418;DHT22;49;48.530;9.200;2024-03-08T02:39:45;10.40;13.20
418;DHT22;49;48.530;9.200;2024-03-08T02:42:13;9.40;14.10
418;DHT22;49;48.530;9.200;2024-03-08T02:44:42;9.00;14.00
418;DHT22;49;48.530;9.200;2024-03-08T02:47:13;8.90;16.20
418;DHT22;49;48.530;9.200;2024-03-08T02:49:41;8.90;17.00
418;DHT22;49;48.530;9.200;2024-03-08T02:52:08;9.80;30.80
418;DHT22;49;48.530;9.200;2024-03-08T02:54:37;10.40;23.50
418;DHT22;49;48.530;9.200;2024-03-08T02:57:04;10.90;25.40
418;DHT22;49;48.530;9.200;2024-03-08T02:59:32;11.40;23.90
418;DHT22;49;48.530;9.200;2024-03-08T03:02:00;11.70;18.70
418;DHT22;49;48.530;9.200;2024-03-08T03:04:29;11.90;21.10
418;DHT22;49;48.530;9.200;2024-03-08T03:06:57;11.10;18.80
418;DHT22;49;48.530;9.200;2024-03-08T03:09:24;11.10;14.50
418;DHT22;49;48.530;9.200;2024-03-08T03:11:54;10.60;18.10
418;DHT22;49;48.530;9.200;2024-03-08T03:14:21;10.90;23.60
418;DHT22;49;48.530;9.200;2024-03-08T03:16:50;11.40;21.10
418;DHT22;49;48.530;9.200;2024-03-08T03:19:17;11.60;19.30
418;DHT22;49;48.530;9.200;2024-03-08T03:21:44;11.20;18.80
418;DHT22;49;48.530;9.200;2024-03-08T03:24:11;10.90;17.80
418;DHT22;49;48.530;9.200;2024-03-08T03:26:41;11.00;18.80
418;DHT22;49;48.530;9.200;2024-03-08T03:29:13;11.30;19.90
418;DHT22;49;48.530;9.200;2024-03-08T03:31:41;11.30;20.10
418;DHT22;49;48.530;9.200;2024-03-08T03:34:08;11.30;12.30
418;DHT22;49;48.530;9.200;2024-03-08T03:36:35;10.80;22.30
418;DHT22;49;48.530;9.200;2024-03-08T03:39:03;11.30;17.10
418;DHT22;49;48.530;9.200;2024-03-08T03:41:36;11.20;21.60
418;DHT22;49;48.530;9.200;2024-03-08T03:44:04;11.60;21.50
418;DHT22;49;48.530;9.200;2024-03-08T03:46:33;12.00;17.20
418;DHT22;49;48.530;9.200;2024-03-08T03:49:01;11.60;18.10
418;DHT22;49;48.530;9.200;2024-03-08T03:51:29;10.80;11.90
418;DHT22;49;48.530;9.200;2024-03-08T03:53:56;10.80;21.80
418;DHT22;49;48.530;9.200;2024-03-08T03:56:25;11.20;21.10
418;DHT22;49;48.530;9.200;2024-03-08T03:58:53;11.80;20.70
418;DHT22;49;48.530;9.200;2024-03-08T04:01:20;11.10;13.60
418;DHT22;49;48.530;9.200;2024-03-08T04:03:48;11.10;11.80
418;DHT22;49;48.530;9.200;2024-03-08T04:06:15;11.40;19.90
418;DHT22;49;48.530;9.200;2024-03-08T04:08:43;11.60;19.10
418;DHT22;49;48.530;9.200;2024-03-08T04:11:09;12.00;19.20
418;DHT22;49;48.530;9.200;2024-03-08T04:13:37;11.90;16.80
418;DHT22;49;48.530;9.200;2024-03-08T04:16:04;11.90;17.10
418;DHT22;49;48.530;9.200;2024-03-08T04:18:36;12.00;18.00
418;DHT22;49;48.530;9.200;2024-03-08T04:21:05;12.10;18.50
418;DHT22;49;48.530;9.200;2024-03-08T04:23:33;12.10;17.60
418;DHT22;49;48.530;9.200;2024-03-08T04:26:01;11.70;12.80
418;DHT22;49;48.530;9.200;2024-03-08T04:28:29;11.70;12.80
418;DHT22;49;48.530;9.200;2024-03-08T04:30:56;11.40;16.00
418;DHT22;49;48.530;9.200;2024-03-08T04:33:30;11.60;16.50
418;DHT22;49;48.530;9.200;2024-03-08T04:36:01;11.50;20.00
418;DHT22;49;48.530;9.200;2024-03-08T04:38:31;11.80;18.40
418;DHT22;49;48.530;9.200;2024-03-08T04:40:58;12.10;17.60
418;DHT22;49;48.530;9.200;2024-03-08T04:43:28;11.40;12.10
418;DHT22;49;48.530;9.200;2024-03-08T04:45:55;10.90;14.40
418;DHT22;49;48.530;9.200;2024-03-08T04:48:25;11.20;11.90
418;DHT22;49;48.530;9.200;2024-03-08T04:50:55;10.80;18.90
418;DHT22;49;48.530;9.200;2024-03-08T04:53:22;10.70;16.50
418;DHT22;49;48.530;9.200;2024-03-08T04:55:51;11.20;17.90
418;DHT22;49;48.530;9.200;2024-03-08T04:58:18;10.90;9.60
418;DHT22;49;48.530;9.200;2024-03-08T05:00:48;10.10;11.10
418;DHT22;49;48.530;9.200;2024-03-08T05:03:16;9.90;12.60
418;DHT22;49;48.530;9.200;2024-03-08T05:05:43;10.40;20.70
418;DHT22;49;48.530;9.200;2024-03-08T05:08:10;10.30;19.00
418;DHT22;49;48.530;9.200;2024-03-08T05:10:37;10.20;20.40
418;DHT22;49;48.530;9.200;2024-03-08T05:13:05;10.60;20.10
418;DHT22;49;48.530;9.200;2024-03-08T05:15:43;11.10;19.80
418;DHT22;49;48.530;9.200;2024-03-08T05:18:13;11.30;20.80
418;DHT22;49;48.530;9.200;2024-03-08T05:20:40;11.20;17.90
418;DHT22;49;48.530;9.200;2024-03-08T05:23:07;11.40;16.00
418;DHT22;49;48.530;9.200;2024-03-08T05:25:34;11.10;18.20
418;DHT22;49;48.530;9.200;2024-03-08T05:28:02;11.30;11.40
418;DHT22;49;48.530;9.200;2024-03-08T05:30:31;11.30;18.00
418;DHT22;49;48.530;9.200;2024-03-08T05:32:58;10.80;16.30
418;DHT22;49;48.530;9.200;2024-03-08T05:35:25;10.90;16.60
418;DHT22;49;48.530;9.200;2024-03-08T05:37:52;10.50;14.40
418;DHT22;49;48.530;9.200;2024-03-08T05:40:19;9.90;12.40
418;DHT22;49;48.530;9.200;2024-03-08T05:42:46;9.40;15.40
418;DHT22;49;48.530;9.200;2024-03-08T05:45:16;10.00;20.10
418;DHT22;49;48.530;9.200;2024-03-08T05:47:48;9.90;15.30
418;DHT22;49;48.530;9.200;2024-03-08T05:50:17;9.50;19.70
418;DHT22;49;48.530;9.200;2024-03-08T05:52:45;10.10;21.50
418;DHT22;49;48.530;9.200;2024-03-08T05:55:13;10.80;20.30
418;DHT22;49;48.530;9.200;2024-03-08T05:57:40;10.80;16.40
418;DHT22;49;48.530;9.200;2024-03-08T06:00:08;10.10;17.70
418;DHT22;49;48.530;9.200;2024-03-08T06:02:36;9.80;17.70
418;DHT22;49;48.530;9.200;2024-03-08T06:05:09;10.10;20.90
418;DHT22;49;48.530;9.200;2024-03-08T06:07:36;10.40;22.30
418;DHT22;49;48.530;9.200;2024-03-08T06:10:07;11.00;18.50
418;DHT22;49;48.530;9.200;2024-03-08T06:12:35;11.20;17.10
418;DHT22;49;48.530;9.200;2024-03-08T06:15:06;10.80;12.90
418;DHT22;49;48.530;9.200;2024-03-08T06:17:34;10.80;16.90
418;DHT22;49;48.530;9.200;2024-03-08T06:20:01;10.60;13.20
418;DHT22;49;48.530;9.200;2024-03-08T06:22:31;11.10;17.80
418;DHT22;49;48.530;9.200;2024-03-08T06:24:58;10.80;12.10
418;DHT22;49;48.530;9.200;2024-03-08T06:27:25;10.20;11.50
418;DHT22;49;48.530;9.200;2024-03-08T06:29:52;9.60;13.30
418;DHT22;49;48.530;9.200;2024-03-08T06:32:19;9.40;14.50
418;DHT22;49;48.530;9.200;2024-03-08T06:34:46;9.30;16.60
418;DHT22;49;48.530;9.200;2024-03-08T06:37:13;9.40;15.10
418;DHT22;49;48.530;9.200;2024-03-08T06:39:51;9.30;16.40
418;DHT22;49;48.530;9.200;2024-03-08T06:42:20;9.60;22.20
418;DHT22;49;48.530;9.200;2024-03-08T06:44:47;9.60;14.40
418;DHT22;49;48.530;9.200;2024-03-08T06:47:28;9.50;14.90
418;DHT22;49;48.530;9.200;2024-03-08T06:49:56;9.40;16.80
418;DHT22;49;48.530;9.200;2024-03-08T06:52:23;9.00;14.50
418;DHT22;49;48.530;9.200;2024-03-08T06:54:58;8.80;16.20
418;DHT22;49;48.530;9.200;2024-03-08T06:57:27;8.60;17.30
418;DHT22;49;48.530;9.200;2024-03-08T07:00:02;8.80;19.00
418;DHT22;49;48.530;9.200;2024-03-08T07:02:30;8.70;18.40
418;DHT22;49;48.530;9.200;2024-03-08T07:04:58;8.80;17.00
418;DHT22;49;48.530;9.200;2024-03-08T07:07:25;8.80;17.00
418;DHT22;49;48.530;9.200;2024-03-08T07:09:59;8.60;16.90
418;DHT22;49;48.530;9.200;2024-03-08T07:12:28;8.60;17.30
418;DHT22;49;48.530;9.200;2024-03-08T07:14:55;8.60;17.80
418;DHT22;49;48.530;9.200;2024-03-08T07:17:23;8.80;17.80
418;DHT22;49;48.530;9.200;2024-03-08T07:19:50;8.90;17.80
418;DHT22;49;48.530;9.200;2024-03-08T07:22:19;9.10;17.60
418;DHT22;49;48.530;9.200;2024-03-08T07:24:50;9.40;18.10
418;DHT22;49;48.530;9.200;2024-03-08T07:46:24;9.70;16.20
418;DHT22;49;48.530;9.200;2024-03-08T07:56:30;10.00;13.10
418;DHT22;49;48.530;9.200;2024-03-08T07:59:25;10.30;13.80
418;DHT22;49;48.530;9.200;2024-03-08T08:29:44;10.70;13.90
418;DHT22;49;48.530;9.200;2024-03-08T08:35:44;10.80;11.50
418;DHT22;49;48.530;9.200;2024-03-08T08:38:13;11.00;12.40
418;DHT22;49;48.530;9.200;2024-03-08T08:48:03;11.80;8.90
418;DHT22;49;48.530;9.200;2024-03-08T08:50:31;12.10;9.00
418;DHT22;49;48.530;9.200;2024-03-08T08:52:58;12.00;9.40
418;DHT22;49;48.530;9.200;2024-03-08T08:55:25;11.60;8.40
418;DHT22;49;48.530;9.200;2024-03-08T08:57:52;11.30;8.90
418;DHT22;49;48.530;9.200;2024-03-08T09:00:20;11.50;8.80
418;DHT22;49;48.530;9.200;2024-03-08T09:02:47;11.50;8.80
418;DHT22;49;48.530;9.200;2024-03-08T09:05:18;11.40;8.50
418;DHT22;49;48.530;9.200;2024-03-08T09:07:45;11.30;8.90
418;DHT22;49;48.530;9.200;2024-03-08T09:10:12;11.10;11.80
418;DHT22;49;48.530;9.200;2024-03-08T09:12:42;10.90;12.20
418;DHT22;49;48.530;9.200;2024-03-08T09:15:12;11.10;9.50
418;DHT22;49;48.530;9.200;2024-03-08T09:17:46;11.30;10.30
418;DHT22;49;48.530;9.200;2024-03-08T09:20:14;11.70;13.00
418;DHT22;49;48.530;9.200;2024-03-08T09:22:45;11.90;8.20
418;DHT22;49;48.530;9.200;2024-03-08T09:25:12;12.10;8.20
418;DHT22;49;48.530;9.200;2024-03-08T09:27:39;12.20;6.80
418;DHT22;49;48.530;9.200;2024-03-08T09:30:07;12.10;8.70
418;DHT22;49;48.530;9.200;2024-03-08T09:32:34;12.20;8.70
418;DHT22;49;48.530;9.200;2024-03-08T09:35:02;12.50;8.70
418;DHT22;49;48.530;9.200;2024-03-08T09:37:34;12.30;7.30
418;DHT22;49;48.530;9.200;2024-03-08T09:40:06;12.10;6.30
418;DHT22;49;48.530;9.200;2024-03-08T09:42:35;12.00;7.30
418;DHT22;49;48.530;9.200;2024-03-08T09:45:04;12.30;8.50
418;DHT22;49;48.530;9.200;2024-03-08T09:47:37;12.50;7.50
418;DHT22;49;48.530;9.200;2024-03-08T09:50:07;12.50;7.00
418;DHT22;49;48.530;9.200;2024-03-08T09:52:35;12.60;10.00
418;DHT22;49;48.530;9.200;2024-03-08T09:55:08;12.30;7.70
418;DHT22;49;48.530;9.200;2024-03-08T09:57:37;12.40;6.60
418;DHT22;49;48.530;9.200;2024-03-08T10:00:10;12.60;6.70
418;DHT22;49;48.530;9.200;2024-03-08T10:02:50;12.70;7.20
418;DHT22;49;48.530;9.200;2024-03-08T10:05:19;13.10;6.60
418;DHT22;49;48.530;9.200;2024-03-08T10:07:47;13.30;8.60
418;DHT22;49;48.530;9.200;2024-03-08T10:10:16;13.30;6.10
418;DHT22;49;48.530;9.200;2024-03-08T10:12:45;13.40;6.40
418;DHT22;49;48.530;9.200;2024-03-08T10:15:20;13.40;5.60
418;DHT22;49;48.530;9.200;2024-03-08T10:17:50;13.50;4.80
418;DHT22;49;48.530;9.200;2024-03-08T10:20:19;13.70;5.30
418;DHT22;49;48.530;9.200;2024-03-08T10:22:49;14.10;6.10
418;DHT22;49;48.530;9.200;2024-03-08T10:25:22;14.20;3.60
418;DHT22;49;48.530;9.200;2024-03-08T10:28:02;13.90;5.50
418;DHT22;49;48.530;9.200;2024-03-08T10:30:31;13.80;4.80
418;DHT22;49;48.530;9.200;2024-03-08T10:33:23;13.80;4.70
418;DHT22;49;48.530;9.200;2024-03-08T10:35:57;13.90;6.00
418;DHT22;49;48.530;9.200;2024-03-08T10:50:34;13.90;4.30
418;DHT22;49;48.530;9.200;2024-03-08T10:56:14;14.10;4.80
418;DHT22;49;48.530;9.200;2024-03-08T10:58:54;14.10;3.90
418;DHT22;49;48.530;9.200;2024-03-08T11:08:41;14.60;5.40
418;DHT22;49;48.530;9.200;2024-03-08T11:11:37;13.40;4.90
418;DHT22;49;48.530;9.200;2024-03-08T11:17:44;12.30;6.50
418;DHT22;49;48.530;9.200;2024-03-08T11:20:27;12.60;6.50
418;DHT22;49;48.530;9.200;2024-03-08T11:23:19;12.10;6.30
418;DHT22;49;48.530;9.200;2024-03-08T11:26:23;11.30;8.50
418;DHT22;49;48.530;9.200;2024-03-08T11:29:36;11.90;10.70
418;DHT22;49;48.530;9.200;2024-03-08T11:32:07;12.40;6.50
418;DHT22;49;48.530;9.200;2024-03-08T11:34:35;12.60;6.70
418;DHT22;49;48.530;9.200;2024-03-08T11:37:04;13.00;7.00
418;DHT22;49;48.530;9.200;2024-03-08T11:39:38;13.30;4.90
418;DHT22;49;48.530;9.200;2024-03-08T11:42:08;13.40;5.20
418;DHT22;49;48.530;9.200;2024-03-08T11:44:36;13.60;6.80
418;DHT22;49;48.530;9.200;2024-03-08T11:47:09;13.40;6.20
418;DHT22;49;48.530;9.200;2024-03-08T11:49:37;13.10;5.80
418;DHT22;49;48.530;9.200;2024-03-08T11:52:11;11.90;6.20
418;DHT22;49;48.530;9.200;2024-03-08T11:54:39;11.90;8.60
418;DHT22;49;48.530;9.200;2024-03-08T11:57:08;11.90;7.60
418;DHT22;49;48.530;9.200;2024-03-08T11:59:36;11.10;8.80
418;DHT22;49;48.530;9.200;2024-03-08T12:02:05;10.90;11.60
418;DHT22;49;48.530;9.200;2024-03-08T12:04:46;11.40;9.10
418;DHT22;49;48.530;9.200;2024-03-08T12:07:13;11.80;10.60
418;DHT22;49;48.530;9.200;2024-03-08T12:09:44;12.20;10.40
418;DHT22;49;48.530;9.200;2024-03-08T12:12:39;12.40;6.50
418;DHT22;49;48.530;9.200;2024-03-08T12:15:07;11.40;8.50
418;DHT22;49;48.530;9.200;2024-03-08T12:17:39;11.60;10.90
418;DHT22;49;48.530;9.200;2024-03-08T12:20:15;12.30;9.00
418;DHT22;49;48.530;9.200;2024-03-08T12:22:45;12.90;6.60
418;DHT22;49;48.530;9.200;2024-03-08T12:25:16;12.80;6.80
418;DHT22;49;48.530;9.200;2024-03-08T12:27:46;12.70;6.80
418;DHT22;49;48.530;9.200;2024-03-08T12:30:20;12.70;6.80
418;DHT22;49;48.530;9.200;2024-03-08T12:32:56;12.90;6.60
418;DHT22;49;48.530;9.200;2024-03-08T12:35:25;12.30;6.90
418;DHT22;49;48.530;9.200;2024-03-08T12:37:54;12.20;8.10
418;DHT22;49;48.530;9.200;2024-03-08T12:40:28;12.50;7.70
418;DHT22;49;48.530;9.200;2024-03-08T12:42:57;12.90;6.90
418;DHT22;49;48.530;9.200;2024-03-08T12:45:27;13.20;7.10
418;DHT22;49;48.530;9.200;2024-03-08T12:51:18;13.10;6.50
418;DHT22;49;48.530;9.200;2024-03-08T12:53:46;12.60;6.70
418;DHT22;49;48.530;9.200;2024-03-08T12:56:16;12.50;6.90
418;DHT22;49;48.530;9.200;2024-03-08T12:58:48;13.10;6.60
418;DHT22;49;48.530;9.200;2024-03-08T13:01:15;13.30;5.80
418;DHT22;49;48.530;9.200;2024-03-08T13:03:43;13.20;5.90
418;DHT22;49;48.530;9.200;2024-03-08T13:06:10;13.10;6.30
418;DHT22;49;48.530;9.200;2024-03-08T13:08:38;13.50;5.40
418;DHT22;49;48.530;9.200;2024-03-08T13:11:08;13.90;6.40
418;DHT22;49;48.530;9.200;2024-03-08T13:13:37;14.30;6.20
418;DHT22;49;48.530;9.200;2024-03-08T13:16:07;14.30;4.40
418;DHT22;49;48.530;9.200;2024-03-08T13:18:35;14.10;5.70
418;DHT22;49;48.530;9.200;2024-03-08T13:21:03;14.00;3.70
418;DHT22;49;48.530;9.200;2024-03-08T13:23:32;13.40;4.60
418;DHT22;49;48.530;9.200;2024-03-08T13:26:05;12.90;6.10
418;DHT22;49;48.530;9.200;2024-03-08T13:28:32;13.10;8.90
418;DHT22;49;48.530;9.200;2024-03-08T13:31:03;13.40;8.70
418;DHT22;49;48.530;9.200;2024-03-08T13:33:34;13.80;4.70
418;DHT22;49;48.530;9.200;2024-03-08T13:36:02;14.00;3.80
418;DHT22;49;48.530;9.200;2024-03-08T13:38:32;13.50;4.80
418;DHT22;49;48.530;9.200;2024-03-08T13:40:59;13.70;5.30
418;DHT22;49;48.530;9.200;2024-03-08T13:43:26;13.00;5.10
418;DHT22;49;48.530;9.200;2024-03-08T13:45:54;12.50;7.10
418;DHT22;49;48.530;9.200;2024-03-08T13:48:24;12.80;7.00
418;DHT22;49;48.530;9.200;2024-03-08T13:50:53;13.10;6.10
418;DHT22;49;48.530;9.200;2024-03-08T13:53:21;13.40;6.10
418;DHT22;49;48.530;9.200;2024-03-08T13:55:49;13.30;6.10
418;DHT22;49;48.530;9.200;2024-03-08T13:58:16;13.50;5.70
418;DHT22;49;48.530;9.200;2024-03-08T14:00:43;12.90;7.70
418;DHT22;49;48.530;9.200;2024-03-08T14:03:11;13.10;5.80
418;DHT22;49;48.530;9.200;2024-03-08T14:05:39;13.50;5.80
418;DHT22;49;48.530;9.200;2024-03-08T14:08:09;13.10;4.80
418;DHT22;49;48.530;9.200;2024-03-08T14:10:37;12.70;6.10
418;DHT22;49;48.530;9.200;2024-03-08T14:13:05;13.10;6.40
418;DHT22;49;48.530;9.200;2024-03-08T14:15:32;13.50;6.60
418;DHT22;49;48.530;9.200;2024-03-08T14:18:00;14.10;4.80
418;DHT22;49;48.530;9.200;2024-03-08T14:20:27;14.40;3.20
418;DHT22;49;48.530;9.200;2024-03-08T14:22:54;13.30;5.00
418;DHT22;49;48.530;9.200;2024-03-08T14:25:24;12.80;6.40
418;DHT22;49;48.530;9.200;2024-03-08T14:27:52;12.70;6.80
418;DHT22;49;48.530;9.200;2024-03-08T14:30:23;12.90;6.90
418;DHT22;49;48.530;9.200;2024-03-08T14:33:00;12.30;8.90
418;DHT22;49;48.530;9.200;2024-03-08T14:35:30;12.40;10.20
418;DHT22;49;48.530;9.200;2024-03-08T14:38:01;13.00;9.20
418;DHT22;49;48.530;9.200;2024-03-08T14:40:30;13.50;7.40
418;DHT22;49;48.530;9.200;2024-03-08T14:42:57;13.00;7.50
418;DHT22;49;48.530;9.200;2024-03-08T14:45:25;12.60;8.80
418;DHT22;49;48.530;9.200;2024-03-08T14:47:55;12.60;9.20
418;DHT22;49;48.530;9.200;2024-03-08T14:50:25;13.00;7.80
418;DHT22;49;48.530;9.200;2024-03-08T14:52:52;13.30;8.20
418;DHT22;49;48.530;9.200;2024-03-08T14:55:20;12.90;7.40
418;DHT22;49;48.530;9.200;2024-03-08T14:57:50;12.50;8.30
418;DHT22;49;48.530;9.200;2024-03-08T15:00:18;12.40;8.60
418;DHT22;49;48.530;9.200;2024-03-08T15:02:52;12.30;9.60
418;DHT22;49;48.530;9.200;2024-03-08T15:05:22;12.30;9.50
418;DHT22;49;48.530;9.200;2024-03-08T15:07:52;12.40;9.80
418;DHT22;49;48.530;9.200;2024-03-08T15:10:19;12.10;9.40
418;DHT22;49;48.530;9.200;2024-03-08T15:19:15;13.00;6.30
418;DHT22;49;48.530;9.200;2024-03-08T15:21:46;13.50;6.10
418;DHT22;49;48.530;9.200;2024-03-08T15:24:19;13.40;5.50
418;DHT22;49;48.530;9.200;2024-03-08T15:26:49;13.60;5.70
418;DHT22;49;48.530;9.200;2024-03-08T15:29:20;13.70;7.50
418;DHT22;49;48.530;9.200;2024-03-08T15:31:55;13.50;6.70
418;DHT22;49;48.530;9.200;2024-03-08T15:34:30;13.80;5.40
418;DHT22;49;48.530;9.200;2024-03-08T15:37:03;13.60;6.90
418;DHT22;49;48.530;9.200;2024-03-08T15:39:33;13.70;5.80
418;DHT22;49;48.530;9.200;2024-03-08T15:42:00;13.50;6.40
418;DHT22;49;48.530;9.200;2024-03-08T15:44:29;13.60;5.80
418;DHT22;49;48.530;9.200;2024-03-08T15:46:56;13.60;5.70
418;DHT22;49;48.530;9.200;2024-03-08T15:49:27;13.60;6.20
418;DHT22;49;48.530;9.200;2024-03-08T15:51:54;13.40;6.50
418;DHT22;49;48.530;9.200;2024-03-08T15:54:22;13.60;5.80
418;DHT22;49;48.530;9.200;2024-03-08T15:56:50;13.70;6.20
418;DHT22;49;48.530;9.200;2024-03-08T15:59:17;13.90;5.70
418;DHT22;49;48.530;9.200;2024-03-08T16:01:44;13.70;7.50
418;DHT22;49;48.530;9.200;2024-03-08T16:04:16;13.70;6.80
418;DHT22;49;48.530;9.200;2024-03-08T16:06:45;13.50;7.30
418;DHT22;49;48.530;9.200;2024-03-08T16:09:12;13.60;7.90
418;DHT22;49;48.530;9.200;2024-03-08T16:11:41;13.50;7.30
418;DHT22;49;48.530;9.200;2024-03-08T16:14:08;13.40;7.30
418;DHT22;49;48.530;9.200;2024-03-08T16:16:37;13.30;9.40
418;DHT22;49;48.530;9.200;2024-03-08T16:19:05;13.50;7.30
418;DHT22;49;48.530;9.200;2024-03-08T16:21:33;13.50;7.30
418;DHT22;49;48.530;9.200;2024-03-08T16:24:03;13.70;8.20
418;DHT22;49;48.530;9.200;2024-03-08T16:26:31;13.80;7.10
418;DHT22;49;48.530;9.200;2024-03-08T16:29:01;13.50;7.30
418;DHT22;49;48.530;9.200;2024-03-08T16:31:29;13.60;7.40
418;DHT22;49;48.530;9.200;2024-03-08T16:33:56;13.50;7.90
418;DHT22;49;48.530;9.200;2024-03-08T16:36:23;13.40;7.20
418;DHT22;49;48.530;9.200;2024-03-08T16:38:52;13.40;7.20
418;DHT22;49;48.530;9.200;2024-03-08T16:41:21;13.40;8.10
418;DHT22;49;48.530;9.200;2024-03-08T16:43:48;13.60;6.80
418;DHT22;49;48.530;9.200;2024-03-08T16:46:15;13.80;7.50
418;DHT22;49;48.530;9.200;2024-03-08T16:48:45;14.20;5.90
418;DHT22;49;48.530;9.200;2024-03-08T16:51:13;14.30;6.10
418;DHT22;49;48.530;9.200;2024-03-08T16:53:41;14.00;6.10
418;DHT22;49;48.530;9.200;2024-03-08T16:56:08;13.90;7.40
418;DHT22;49;48.530;9.200;2024-03-08T16:58:38;13.90;6.80
418;DHT22;49;48.530;9.200;2024-03-08T17:01:07;14.00;6.90
418;DHT22;49;48.530;9.200;2024-03-08T17:03:34;13.70;8.20
418;DHT22;49;48.530;9.200;2024-03-08T17:06:02;13.40;7.30
418;DHT22;49;48.530;9.200;2024-03-08T17:08:31;13.60;7.40
418;DHT22;49;48.530;9.200;2024-03-08T17:10:58;13.70;7.50
418;DHT22;49;48.530;9.200;2024-03-08T17:13:25;13.80;7.50
418;DHT22;49;48.530;9.200;2024-03-08T17:15:54;13.70;7.80
418;DHT22;49;48.530;9.200;2024-03-08T17:18:21;13.50;7.30
418;DHT22;49;48.530;9.200;2024-03-08T17:20:48;13.50;7.70
418;DHT22;49;48.530;9.200;2024-03-08T17:23:15;13.60;8.60
418;DHT22;49;48.530;9.200;2024-03-08T17:25:43;13.70;8.10
418;DHT22;49;48.530;9.200;2024-03-08T17:28:11;13.60;7.40
418;DHT22;49;48.530;9.200;2024-03-08T17:30:40;13.10;9.10
418;DHT22;49;48.530;9.200;2024-03-08T17:33:11;12.80;8.90
418;DHT22;49;48.530;9.200;2024-03-08T17:35:40;12.10;10.00
418;DHT22;49;48.530;9.200;2024-03-08T17:38:09;12.30;10.60
418;DHT22;49;48.530;9.200;2024-03-08T17:40:37;12.40;10.50
418;DHT22;49;48.530;9.200;2024-03-08T17:43:05;12.30;10.30
418;DHT22;49;48.530;9.200;2024-03-08T17:45:36;12.50;11.80
418;DHT22;49;48.530;9.200;2024-03-08T17:48:06;12.10;12.10
418;DHT22;49;48.530;9.200;2024-03-08T17:50:39;11.70;12.20
418;DHT22;49;48.530;9.200;2024-03-08T17:53:07;11.40;13.00
418;DHT22;49;48.530;9.200;2024-03-08T17:55:35;11.80;12.90
418;DHT22;49;48.530;9.200;2024-03-08T17:58:06;11.80;12.40
418;DHT22;49;48.530;9.200;2024-03-08T18:00:33;11.10;11.80
418;DHT22;49;48.530;9.200;2024-03-08T18:03:04;10.70;17.00
418;DHT22;49;48.530;9.200;2024-03-08T18:05:34;11.10;13.20
418;DHT22;49;48.530;9.200;2024-03-08T18:08:04;10.80;13.30
418;DHT22;49;48.530;9.200;2024-03-08T18:10:33;11.10;13.90
418;DHT22;49;48.530;9.200;2024-03-08T18:13:02;11.30;11.50
418;DHT22;49;48.530;9.200;2024-03-08T18:15:34;10.90;13.60
418;DHT22;49;48.530;9.200;2024-03-08T18:18:01;11.00;12.80
418;DHT22;49;48.530;9.200;2024-03-08T18:20:32;10.90;12.60
418;DHT22;49;48.530;9.200;2024-03-08T18:23:09;10.60;13.70
418;DHT22;49;48.530;9.200;2024-03-08T18:25:36;11.20;11.90
418;DHT22;49;48.530;9.200;2024-03-08T18:28:04;11.00;14.00
418;DHT22;49;48.530;9.200;2024-03-08T18:30:34;11.40;13.50
418;DHT22;49;48.530;9.200;2024-03-08T18:33:03;11.80;11.00
418;DHT22;49;48.530;9.200;2024-03-08T18:35:30;11.70;10.10
418;DHT22;49;48.530;9.200;2024-03-08T18:37:57;11.30;10.70
418;DHT22;49;48.530;9.200;2024-03-08T18:43:08;11.60;9.70
418;DHT22;49;48.530;9.200;2024-03-08T18:45:37;11.80;12.30
418;DHT22;49;48.530;9.200;2024-03-08T18:48:05;11.60;10.60
418;DHT22;49;48.530;9.200;2024-03-08T18:50:32;11.80;10.30
418;DHT22;49;48.530;9.200;2024-03-08T18:53:00;11.70;11.50
418;DHT22;49;48.530;9.200;2024-03-08T18:55:28;11.60;9.60
418;DHT22;49;48.530;9.200;2024-03-08T18:57:57;12.00;10.00
418;DHT22;49;48.530;9.200;2024-03-08T19:00:28;12.20;8.10
418;DHT22;49;48.530;9.200;2024-03-08T19:03:04;11.70;10.60
418;DHT22;49;48.530;9.200;2024-03-08T19:05:34;11.70;10.20
418;DHT22;49;48.530;9.200;2024-03-08T19:08:02;11.90;10.30
418;DHT22;49;48.530;9.200;2024-03-08T19:10:34;11.70;10.30